sensor_id;sensor_type;location;lat;lon;timestamp;pressure;altitude;pressure_sealevel;temperature;humidity
62942;BME280;49042;47.318;19.874;2024-02-21T00:00:26;101210.84;;;7.68;100.00
62942;BME280;49042;47.318;19.874;2024-02-21T00:03:27;101220.88;;;7.77;100.00
62942;BME280;49042;47.318;19.874;2024-02-21T00:06:29;101209.66;;;7.78;100.00
62942;BME280;49042;47.318;19.874;2024-02-21T00:09:31;101211.72;;;7.84;100.00
62942;BME280;49042;47.318;19.874;2024-02-21T00:12:32;101205.06;;;7.89;100.00
62942;BME280;49042;47.318;19.874;2024-02-21T00:15:34;101208.38;;;7.87;100.00
62942;BME280;49042;47.318;19.874;2024-02-21T00:18:36;101206.25;;;7.79;100.00
62942;BME280;49042;47.318;19.874;2024-02-21T00:21:38;101202.28;;;7.86;100.00
62942;BME280;49042;47.318;19.874;2024-02-21T00:24:39;101204.97;;;7.88;100.00
62942;BME280;49042;47.318;19.874;2024-02-21T00:27:41;101201.12;;;7.81;100.00
62942;BME280;49042;47.318;19.874;2024-02-21T00:30:43;101196.06;;;7.67;100.00
62942;BME280;49042;47.318;19.874;2024-02-21T00:33:44;101194.22;;;7.65;100.00
62942;BME280;49042;47.318;19.874;2024-02-21T00:36:46;101194.84;;;7.60;100.00
62942;BME280;49042;47.318;19.874;2024-02-21T00:39:48;101191.53;;;7.63;100.00
62942;BME280;49042;47.318;19.874;2024-02-21T00:42:49;101188.94;;;7.63;100.00
62942;BME280;49042;47.318;19.874;2024-02-21T00:45:51;101192.63;;;7.52;100.00
62942;BME280;49042;47.318;19.874;2024-02-21T00:48:53;101189.22;;;7.53;100.00
62942;BME280;49042;47.318;19.874;2024-02-21T00:51:55;101182.59;;;7.58;100.00
62942;BME280;49042;47.318;19.874;2024-02-21T00:54:57;101182.25;;;7.52;100.00
62942;BME280;49042;47.318;19.874;2024-02-21T00:57:59;101181.34;;;7.51;100.00
62942;BME280;49042;47.318;19.874;2024-02-21T01:01:01;101187.56;;;7.38;100.00
62942;BME280;49042;47.318;19.874;2024-02-21T01:04:03;101187.91;;;7.44;100.00
62942;BME280;49042;47.318;19.874;2024-02-21T01:07:05;101183.22;;;7.54;100.00
62942;BME280;49042;47.318;19.874;2024-02-21T01:10:07;101176.34;;;7.54;100.00
62942;BME280;49042;47.318;19.874;2024-02-21T01:13:09;101172.03;;;7.55;100.00
62942;BME280;49042;47.318;19.874;2024-02-21T01:16:11;101175.44;;;7.54;100.00
62942;BME280;49042;47.318;19.874;2024-02-21T01:19:13;101168.84;;;7.44;100.00
62942;BME280;49042;47.318;19.874;2024-02-21T01:22:15;101171.91;;;7.36;100.00
62942;BME280;49042;47.318;19.874;2024-02-21T01:25:17;101168.63;;;7.24;100.00
62942;BME280;49042;47.318;19.874;2024-02-21T01:28:19;101172.81;;;7.22;100.00
62942;BME280;49042;47.318;19.874;2024-02-21T01:31:23;101168.00;;;7.13;100.00
62942;BME280;49042;47.318;19.874;2024-02-21T01:34:25;101169.44;;;7.07;100.00
62942;BME280;49042;47.318;19.874;2024-02-21T01:37:29;101164.88;;;7.03;100.00
62942;BME280;49042;47.318;19.874;2024-02-21T01:40:31;101163.44;;;6.93;100.00
62942;BME280;49042;47.318;19.874;2024-02-21T01:43:33;101166.16;;;6.95;100.00
62942;BME280;49042;47.318;19.874;2024-02-21T01:46:35;101160.25;;;6.98;100.00
62942;BME280;49042;47.318;19.874;2024-02-21T01:49:37;101161.88;;;6.95;100.00
62942;BME280;49042;47.318;19.874;2024-02-21T01:52:38;101156.56;;;6.94;100.00
62942;BME280;49042;47.318;19.874;2024-02-21T01:55:40;101159.97;;;6.93;100.00
62942;BME280;49042;47.318;19.874;2024-02-21T01:58:47;101162.09;;;7.00;100.00
62942;BME280;49042;47.318;19.874;2024-02-21T02:01:51;101157.03;;;7.02;100.00
62942;BME280;49042;47.318;19.874;2024-02-21T02:04:54;101156.28;;;7.04;100.00
62942;BME280;49042;47.318;19.874;2024-02-21T02:07:56;101155.84;;;7.12;100.00
62942;BME280;49042;47.318;19.874;2024-02-21T02:10:58;101154.31;;;7.15;100.00
62942;BME280;49042;47.318;19.874;2024-02-21T02:14:00;101153.47;;;7.32;100.00
62942;BME280;49042;47.318;19.874;2024-02-21T02:17:02;101154.66;;;7.54;100.00
62942;BME280;49042;47.318;19.874;2024-02-21T02:20:05;101148.44;;;7.67;100.00
62942;BME280;49042;47.318;19.874;2024-02-21T02:23:21;101149.03;;;7.78;100.00
62942;BME280;49042;47.318;19.874;2024-02-21T02:26:23;101137.88;;;7.64;100.00
62942;BME280;49042;47.318;19.874;2024-02-21T02:29:25;101134.50;;;7.65;100.00
62942;BME280;49042;47.318;19.874;2024-02-21T02:32:26;101143.38;;;7.53;100.00
62942;BME280;49042;47.318;19.874;2024-02-21T02:35:28;101140.56;;;7.48;100.00
62942;BME280;49042;47.318;19.874;2024-02-21T02:38:30;101138.75;;;7.47;100.00
62942;BME280;49042;47.318;19.874;2024-02-21T02:41:35;101140.47;;;7.47;100.00
62942;BME280;49042;47.318;19.874;2024-02-21T02:44:37;101144.53;;;7.42;100.00
62942;BME280;49042;47.318;19.874;2024-02-21T02:47:39;101143.34;;;7.36;100.00
62942;BME280;49042;47.318;19.874;2024-02-21T02:50:41;101143.28;;;7.35;100.00
62942;BME280;49042;47.318;19.874;2024-02-21T02:53:43;101142.13;;;7.30;100.00
62942;BME280;49042;47.318;19.874;2024-02-21T02:56:45;101138.16;;;7.36;100.00
62942;BME280;49042;47.318;19.874;2024-02-21T02:59:52;101136.31;;;7.34;100.00
62942;BME280;49042;47.318;19.874;2024-02-21T03:02:54;101134.03;;;7.40;100.00
62942;BME280;49042;47.318;19.874;2024-02-21T03:05:56;101126.97;;;7.37;100.00
62942;BME280;49042;47.318;19.874;2024-02-21T03:08:58;101128.41;;;7.32;100.00
62942;BME280;49042;47.318;19.874;2024-02-21T03:12:01;101128.34;;;7.31;100.00
62942;BME280;49042;47.318;19.874;2024-02-21T03:15:06;101129.88;;;7.27;100.00
62942;BME280;49042;47.318;19.874;2024-02-21T03:18:08;101132.03;;;7.19;100.00
62942;BME280;49042;47.318;19.874;2024-02-21T03:21:10;101131.22;;;7.20;100.00
62942;BME280;49042;47.318;19.874;2024-02-21T03:24:11;101134.47;;;7.16;100.00
62942;BME280;49042;47.318;19.874;2024-02-21T03:27:13;101136.44;;;7.20;100.00
62942;BME280;49042;47.318;19.874;2024-02-21T03:30:15;101139.03;;;7.20;100.00
62942;BME280;49042;47.318;19.874;2024-02-21T03:33:17;101131.94;;;7.17;100.00
62942;BME280;49042;47.318;19.874;2024-02-21T03:36:19;101137.78;;;7.13;100.00
62942;BME280;49042;47.318;19.874;2024-02-21T03:39:20;101146.66;;;7.02;100.00
62942;BME280;49042;47.318;19.874;2024-02-21T03:42:23;101148.34;;;7.01;100.00
62942;BME280;49042;47.318;19.874;2024-02-21T03:45:24;101152.28;;;6.94;100.00
62942;BME280;49042;47.318;19.874;2024-02-21T03:48:26;101148.00;;;6.95;100.00
62942;BME280;49042;47.318;19.874;2024-02-21T03:51:28;101140.50;;;6.84;100.00
62942;BME280;49042;47.318;19.874;2024-02-21T03:54:30;101141.13;;;6.80;100.00
62942;BME280;49042;47.318;19.874;2024-02-21T03:57:31;101145.91;;;6.89;100.00
62942;BME280;49042;47.318;19.874;2024-02-21T04:00:33;101141.56;;;6.88;100.00
62942;BME280;49042;47.318;19.874;2024-02-21T04:03:35;101145.84;;;6.88;100.00
62942;BME280;49042;47.318;19.874;2024-02-21T04:06:37;101141.63;;;6.90;100.00
62942;BME280;49042;47.318;19.874;2024-02-21T04:09:38;101141.22;;;6.82;100.00
62942;BME280;49042;47.318;19.874;2024-02-21T04:12:40;101138.63;;;6.82;100.00
62942;BME280;49042;47.318;19.874;2024-02-21T04:15:42;101138.63;;;6.82;100.00
62942;BME280;49042;47.318;19.874;2024-02-21T04:18:43;101141.38;;;6.85;100.00
62942;BME280;49042;47.318;19.874;2024-02-21T04:21:45;101139.31;;;6.79;100.00
62942;BME280;49042;47.318;19.874;2024-02-21T04:24:47;101141.84;;;6.78;100.00
62942;BME280;49042;47.318;19.874;2024-02-21T04:27:48;101143.97;;;6.70;100.00
62942;BME280;49042;47.318;19.874;2024-02-21T04:30:50;101146.75;;;6.73;100.00
62942;BME280;49042;47.318;19.874;2024-02-21T04:33:52;101144.59;;;6.66;100.00
62942;BME280;49042;47.318;19.874;2024-02-21T04:36:54;101142.78;;;6.64;100.00
62942;BME280;49042;47.318;19.874;2024-02-21T04:39:55;101143.62;;;6.63;100.00
62942;BME280;49042;47.318;19.874;2024-02-21T04:42:57;101144.12;;;6.58;100.00
62942;BME280;49042;47.318;19.874;2024-02-21T04:45:59;101143.06;;;6.54;100.00
62942;BME280;49042;47.318;19.874;2024-02-21T04:49:01;101139.75;;;6.72;100.00
62942;BME280;49042;47.318;19.874;2024-02-21T04:52:04;101149.84;;;6.37;100.00
62942;BME280;49042;47.318;19.874;2024-02-21T04:55:06;101155.87;;;5.79;100.00
62942;BME280;49042;47.318;19.874;2024-02-21T04:58:08;101156.16;;;5.55;100.00
62942;BME280;49042;47.318;19.874;2024-02-21T05:01:10;101159.66;;;5.42;100.00
62942;BME280;49042;47.318;19.874;2024-02-21T05:04:12;101165.53;;;5.40;100.00
62942;BME280;49042;47.318;19.874;2024-02-21T05:07:14;101162.44;;;5.45;100.00
62942;BME280;49042;47.318;19.874;2024-02-21T05:10:16;101164.22;;;5.46;100.00
62942;BME280;49042;47.318;19.874;2024-02-21T05:13:19;101156.84;;;5.53;100.00
62942;BME280;49042;47.318;19.874;2024-02-21T05:16:21;101164.78;;;5.70;100.00
62942;BME280;49042;47.318;19.874;2024-02-21T05:19:22;101162.00;;;5.66;100.00
62942;BME280;49042;47.318;19.874;2024-02-21T05:22:24;101173.78;;;5.48;100.00
62942;BME280;49042;47.318;19.874;2024-02-21T05:25:26;101173.38;;;5.14;100.00
62942;BME280;49042;47.318;19.874;2024-02-21T05:28:28;101173.97;;;4.96;100.00
62942;BME280;49042;47.318;19.874;2024-02-21T05:34:53;101171.50;;;5.11;100.00
62942;BME280;49042;47.318;19.874;2024-02-21T05:37:55;101173.38;;;5.41;100.00
62942;BME280;49042;47.318;19.874;2024-02-21T05:40:57;101179.37;;;5.40;100.00
62942;BME280;49042;47.318;19.874;2024-02-21T05:43:59;101169.09;;;5.42;100.00
62942;BME280;49042;47.318;19.874;2024-02-21T05:47:01;101174.97;;;5.39;100.00
62942;BME280;49042;47.318;19.874;2024-02-21T05:50:03;101175.19;;;5.29;100.00
62942;BME280;49042;47.318;19.874;2024-02-21T05:53:05;101179.25;;;4.98;100.00
62942;BME280;49042;47.318;19.874;2024-02-21T05:56:11;101176.03;;;4.75;100.00
62942;BME280;49042;47.318;19.874;2024-02-21T05:59:13;101172.03;;;4.66;100.00
62942;BME280;49042;47.318;19.874;2024-02-21T06:02:15;101187.94;;;4.59;100.00
62942;BME280;49042;47.318;19.874;2024-02-21T06:05:17;101186.47;;;4.76;100.00
62942;BME280;49042;47.318;19.874;2024-02-21T06:08:19;101183.53;;;4.97;100.00
62942;BME280;49042;47.318;19.874;2024-02-21T06:11:21;101187.84;;;4.71;100.00
62942;BME280;49042;47.318;19.874;2024-02-21T06:14:23;101189.78;;;4.48;100.00
62942;BME280;49042;47.318;19.874;2024-02-21T06:17:25;101189.41;;;4.30;100.00
62942;BME280;49042;47.318;19.874;2024-02-21T06:20:27;101186.34;;;4.35;100.00
62942;BME280;49042;47.318;19.874;2024-02-21T06:23:29;101204.66;;;4.78;100.00
62942;BME280;49042;47.318;19.874;2024-02-21T06:26:30;101206.50;;;4.67;100.00
62942;BME280;49042;47.318;19.874;2024-02-21T06:29:32;101212.50;;;4.40;100.00
62942;BME280;49042;47.318;19.874;2024-02-21T06:32:34;101213.81;;;4.47;100.00
62942;BME280;49042;47.318;19.874;2024-02-21T06:35:36;101216.69;;;5.44;100.00
62942;BME280;49042;47.318;19.874;2024-02-21T06:38:39;101199.22;;;7.93;100.00
62942;BME280;49042;47.318;19.874;2024-02-21T06:41:41;101187.84;;;10.05;100.00
62942;BME280;49042;47.318;19.874;2024-02-21T06:44:44;101198.22;;;11.73;90.18
62942;BME280;49042;47.318;19.874;2024-02-21T06:47:46;101193.13;;;13.01;75.74
62942;BME280;49042;47.318;19.874;2024-02-21T06:50:48;101188.78;;;13.86;64.03
62942;BME280;49042;47.318;19.874;2024-02-21T06:53:50;101200.91;;;15.92;52.82
62942;BME280;49042;47.318;19.874;2024-02-21T06:56:52;101202.63;;;15.49;51.50
62942;BME280;49042;47.318;19.874;2024-02-21T06:59:54;101212.53;;;16.03;50.85
62942;BME280;49042;47.318;19.874;2024-02-21T07:02:55;101200.78;;;17.94;45.69
62942;BME280;49042;47.318;19.874;2024-02-21T07:05:57;101208.34;;;18.39;41.98
62942;BME280;49042;47.318;19.874;2024-02-21T07:08:59;101215.16;;;19.08;40.17
62942;BME280;49042;47.318;19.874;2024-02-21T07:12:01;101215.78;;;18.00;41.28
62942;BME280;49042;47.318;19.874;2024-02-21T07:15:03;101212.13;;;18.65;40.87
62942;BME280;49042;47.318;19.874;2024-02-21T07:18:08;101215.63;;;18.61;39.62
62942;BME280;49042;47.318;19.874;2024-02-21T07:21:09;101211.59;;;19.04;39.01
62942;BME280;49042;47.318;19.874;2024-02-21T07:24:11;101213.81;;;19.69;38.01
62942;BME280;49042;47.318;19.874;2024-02-21T07:27:15;101226.37;;;20.18;36.35
62942;BME280;49042;47.318;19.874;2024-02-21T07:30:17;101214.09;;;21.52;34.42
62942;BME280;49042;47.318;19.874;2024-02-21T07:33:19;101218.28;;;19.78;36.47
62942;BME280;49042;47.318;19.874;2024-02-21T07:36:30;101218.50;;;20.43;35.67
62942;BME280;49042;47.318;19.874;2024-02-21T07:39:36;101220.72;;;19.45;36.18
62942;BME280;49042;47.318;19.874;2024-02-21T07:42:38;101216.66;;;20.10;36.21
62942;BME280;49042;47.318;19.874;2024-02-21T07:45:39;101215.91;;;21.44;33.51
62942;BME280;49042;47.318;19.874;2024-02-21T07:48:41;101221.91;;;22.15;32.23
62942;BME280;49042;47.318;19.874;2024-02-21T07:51:43;101221.22;;;21.03;33.09
62942;BME280;49042;47.318;19.874;2024-02-21T07:54:45;101221.00;;;22.14;31.55
62942;BME280;49042;47.318;19.874;2024-02-21T07:57:47;101224.50;;;23.41;30.57
62942;BME280;49042;47.318;19.874;2024-02-21T08:00:49;101218.19;;;23.52;29.08
62942;BME280;49042;47.318;19.874;2024-02-21T08:03:51;101220.69;;;24.41;28.35
62942;BME280;49042;47.318;19.874;2024-02-21T08:06:53;101219.28;;;24.13;28.00
62942;BME280;49042;47.318;19.874;2024-02-21T08:09:57;101228.00;;;23.47;28.88
62942;BME280;49042;47.318;19.874;2024-02-21T08:12:58;101227.50;;;23.95;30.05
62942;BME280;49042;47.318;19.874;2024-02-21T08:16:00;101241.19;;;23.62;28.76
62942;BME280;49042;47.318;19.874;2024-02-21T08:19:02;101235.44;;;26.13;26.93
62942;BME280;49042;47.318;19.874;2024-02-21T08:22:05;101231.34;;;28.10;23.95
62942;BME280;49042;47.318;19.874;2024-02-21T08:25:08;101232.84;;;29.32;23.28
62942;BME280;49042;47.318;19.874;2024-02-21T08:28:10;101231.34;;;25.96;25.27
62942;BME280;49042;47.318;19.874;2024-02-21T08:31:18;101229.84;;;20.04;33.35
62942;BME280;49042;47.318;19.874;2024-02-21T08:34:20;101230.94;;;20.75;33.14
62942;BME280;49042;47.318;19.874;2024-02-21T08:37:22;101219.09;;;25.86;27.56
62942;BME280;49042;47.318;19.874;2024-02-21T08:40:24;101218.97;;;24.36;27.78
62942;BME280;49042;47.318;19.874;2024-02-21T08:43:25;101223.81;;;20.46;33.10
62942;BME280;49042;47.318;19.874;2024-02-21T08:46:27;101222.59;;;16.70;38.91
62942;BME280;49042;47.318;19.874;2024-02-21T08:49:29;101225.81;;;15.69;43.83
62942;BME280;49042;47.318;19.874;2024-02-21T08:52:35;101217.63;;;15.95;45.97
62942;BME280;49042;47.318;19.874;2024-02-21T08:55:37;101213.25;;;21.39;35.24
62942;BME280;49042;47.318;19.874;2024-02-21T08:58:40;101210.84;;;25.01;29.60
62942;BME280;49042;47.318;19.874;2024-02-21T09:01:42;101220.91;;;24.23;29.02
62942;BME280;49042;47.318;19.874;2024-02-21T09:04:44;101211.09;;;22.46;31.63
62942;BME280;49042;47.318;19.874;2024-02-21T09:07:46;101221.06;;;21.88;33.56
62942;BME280;49042;47.318;19.874;2024-02-21T09:10:47;101219.03;;;23.57;30.41
62942;BME280;49042;47.318;19.874;2024-02-21T09:13:49;101233.37;;;26.68;26.33
62942;BME280;49042;47.318;19.874;2024-02-21T09:16:51;101226.41;;;25.30;28.29
62942;BME280;49042;47.318;19.874;2024-02-21T09:19:53;101232.66;;;27.97;25.29
62942;BME280;49042;47.318;19.874;2024-02-21T09:22:57;101231.75;;;27.64;25.76
62942;BME280;49042;47.318;19.874;2024-02-21T09:25:59;101231.25;;;24.48;28.84
62942;BME280;49042;47.318;19.874;2024-02-21T09:29:05;101231.38;;;22.60;31.23
62942;BME280;49042;47.318;19.874;2024-02-21T09:32:07;101231.81;;;20.79;34.74
62942;BME280;49042;47.318;19.874;2024-02-21T09:35:09;101227.41;;;20.95;34.18
62942;BME280;49042;47.318;19.874;2024-02-21T09:38:11;101240.59;;;20.34;35.76
62942;BME280;49042;47.318;19.874;2024-02-21T09:41:18;101246.16;;;17.68;39.03
62942;BME280;49042;47.318;19.874;2024-02-21T09:44:32;101238.94;;;17.01;41.82
62942;BME280;49042;47.318;19.874;2024-02-21T09:47:54;101245.28;;;16.62;43.78
62942;BME280;49042;47.318;19.874;2024-02-21T09:51:02;101248.44;;;15.22;46.88
62942;BME280;49042;47.318;19.874;2024-02-21T09:54:04;101243.84;;;14.16;55.22
62942;BME280;49042;47.318;19.874;2024-02-21T09:57:17;101248.09;;;14.12;61.59
62942;BME280;49042;47.318;19.874;2024-02-21T10:00:18;101239.41;;;14.45;66.55
62942;BME280;49042;47.318;19.874;2024-02-21T10:03:23;101255.41;;;13.64;72.86
62942;BME280;49042;47.318;19.874;2024-02-21T10:06:25;101243.66;;;14.09;68.58
62942;BME280;49042;47.318;19.874;2024-02-21T10:09:28;101242.59;;;14.35;66.29
62942;BME280;49042;47.318;19.874;2024-02-21T10:12:31;101242.00;;;16.75;53.56
62942;BME280;49042;47.318;19.874;2024-02-21T10:15:33;101236.84;;;18.73;43.17
62942;BME280;49042;47.318;19.874;2024-02-21T10:18:35;101246.78;;;18.17;44.35
62942;BME280;49042;47.318;19.874;2024-02-21T10:21:41;101234.16;;;18.67;42.39
62942;BME280;49042;47.318;19.874;2024-02-21T10:24:42;101231.25;;;18.42;42.15
62942;BME280;49042;47.318;19.874;2024-02-21T10:27:44;101227.53;;;19.15;40.37
62942;BME280;49042;47.318;19.874;2024-02-21T10:30:50;101224.75;;;20.69;38.59
62942;BME280;49042;47.318;19.874;2024-02-21T10:34:02;101213.53;;;25.00;31.54
62942;BME280;49042;47.318;19.874;2024-02-21T10:37:06;101211.25;;;26.96;26.55
62942;BME280;49042;47.318;19.874;2024-02-21T10:40:08;101208.56;;;29.35;23.78
62942;BME280;49042;47.318;19.874;2024-02-21T10:43:12;101209.84;;;26.03;26.74
62942;BME280;49042;47.318;19.874;2024-02-21T10:46:18;101198.94;;;22.00;34.25
62942;BME280;49042;47.318;19.874;2024-02-21T10:49:23;101200.00;;;20.96;34.18
62942;BME280;49042;47.318;19.874;2024-02-21T10:55:55;101202.06;;;19.23;37.17
62942;BME280;49042;47.318;19.874;2024-02-21T10:58:58;101186.63;;;18.69;38.22
62942;BME280;49042;47.318;19.874;2024-02-21T11:02:00;101184.56;;;18.36;40.14
62942;BME280;49042;47.318;19.874;2024-02-21T11:05:03;101178.53;;;19.67;41.94
62942;BME280;49042;47.318;19.874;2024-02-21T11:08:06;101174.84;;;19.42;39.00
62942;BME280;49042;47.318;19.874;2024-02-21T11:11:08;101173.19;;;24.06;32.07
62942;BME280;49042;47.318;19.874;2024-02-21T11:14:26;101169.25;;;27.96;25.23
62942;BME280;49042;47.318;19.874;2024-02-21T11:17:28;101169.94;;;27.70;25.25
62942;BME280;49042;47.318;19.874;2024-02-21T11:20:34;101168.47;;;27.92;24.97
62942;BME280;49042;47.318;19.874;2024-02-21T11:23:36;101159.84;;;27.50;25.53
62942;BME280;49042;47.318;19.874;2024-02-21T11:26:40;101161.00;;;26.34;26.38
62942;BME280;49042;47.318;19.874;2024-02-21T11:29:47;101156.06;;;23.56;30.26
62942;BME280;49042;47.318;19.874;2024-02-21T11:32:59;101160.66;;;19.27;35.84
62942;BME280;49042;47.318;19.874;2024-02-21T11:36:01;101147.50;;;22.13;32.90
62942;BME280;49042;47.318;19.874;2024-02-21T11:39:06;101143.34;;;24.44;29.67
62942;BME280;49042;47.318;19.874;2024-02-21T11:42:08;101139.66;;;29.08;24.10
62942;BME280;49042;47.318;19.874;2024-02-21T11:45:10;101141.56;;;31.70;21.03
62942;BME280;49042;47.318;19.874;2024-02-21T11:48:12;101136.00;;;34.95;18.09
62942;BME280;49042;47.318;19.874;2024-02-21T11:51:21;101133.41;;;37.91;15.39
62942;BME280;49042;47.318;19.874;2024-02-21T11:54:23;101135.97;;;37.31;15.65
62942;BME280;49042;47.318;19.874;2024-02-21T11:57:25;101135.81;;;35.13;17.20
62942;BME280;49042;47.318;19.874;2024-02-21T12:00:26;101131.53;;;35.38;16.69
62942;BME280;49042;47.318;19.874;2024-02-21T12:03:28;101121.25;;;34.70;17.42
62942;BME280;49042;47.318;19.874;2024-02-21T12:06:32;101122.84;;;34.27;17.48
62942;BME280;49042;47.318;19.874;2024-02-21T12:09:34;101118.81;;;33.20;18.01
62942;BME280;49042;47.318;19.874;2024-02-21T12:12:37;101109.97;;;35.79;16.59
62942;BME280;49042;47.318;19.874;2024-02-21T12:15:39;101120.09;;;39.07;14.22
62942;BME280;49042;47.318;19.874;2024-02-21T12:18:42;101113.16;;;35.29;16.27
62942;BME280;49042;47.318;19.874;2024-02-21T12:21:44;101103.03;;;29.55;20.50
62942;BME280;49042;47.318;19.874;2024-02-21T12:24:46;101095.47;;;27.82;22.94
62942;BME280;49042;47.318;19.874;2024-02-21T12:27:50;101103.69;;;30.73;20.38
62942;BME280;49042;47.318;19.874;2024-02-21T12:30:51;101092.59;;;28.97;21.46
62942;BME280;49042;47.318;19.874;2024-02-21T12:33:54;101090.66;;;31.64;19.17
62942;BME280;49042;47.318;19.874;2024-02-21T12:36:56;101086.50;;;32.31;18.34
62942;BME280;49042;47.318;19.874;2024-02-21T12:39:57;101088.22;;;28.42;21.44
62942;BME280;49042;47.318;19.874;2024-02-21T12:43:00;101087.19;;;31.21;19.34
62942;BME280;49042;47.318;19.874;2024-02-21T12:46:04;101070.06;;;31.81;18.57
62942;BME280;49042;47.318;19.874;2024-02-21T12:49:06;101071.50;;;32.43;17.96
62942;BME280;49042;47.318;19.874;2024-02-21T12:52:10;101070.13;;;33.04;17.43
62942;BME280;49042;47.318;19.874;2024-02-21T12:55:12;101055.66;;;32.19;18.59
62942;BME280;49042;47.318;19.874;2024-02-21T12:58:15;101057.63;;;30.38;19.74
62942;BME280;49042;47.318;19.874;2024-02-21T13:01:17;101056.63;;;31.61;18.77
62942;BME280;49042;47.318;19.874;2024-02-21T13:04:19;101060.28;;;32.69;17.72
62942;BME280;49042;47.318;19.874;2024-02-21T13:07:21;101048.66;;;32.33;18.05
62942;BME280;49042;47.318;19.874;2024-02-21T13:10:23;101050.19;;;33.57;17.28
62942;BME280;49042;47.318;19.874;2024-02-21T13:13:24;101040.19;;;34.21;16.73
62942;BME280;49042;47.318;19.874;2024-02-21T13:16:26;101049.19;;;31.28;18.13
62942;BME280;49042;47.318;19.874;2024-02-21T13:19:28;101036.03;;;29.73;19.88
62942;BME280;49042;47.318;19.874;2024-02-21T13:22:30;101038.28;;;30.50;19.12
62942;BME280;49042;47.318;19.874;2024-02-21T13:25:32;101030.44;;;33.55;16.86
62942;BME280;49042;47.318;19.874;2024-02-21T13:28:34;101021.44;;;32.20;17.70
62942;BME280;49042;47.318;19.874;2024-02-21T13:31:35;101021.44;;;30.66;18.82
62942;BME280;49042;47.318;19.874;2024-02-21T13:34:37;101019.06;;;33.97;16.62
62942;BME280;49042;47.318;19.874;2024-02-21T13:37:40;101014.09;;;33.08;17.37
62942;BME280;49042;47.318;19.874;2024-02-21T13:40:42;101011.25;;;31.52;17.92
62942;BME280;49042;47.318;19.874;2024-02-21T13:43:44;101011.47;;;28.38;20.38
62942;BME280;49042;47.318;19.874;2024-02-21T13:46:48;101003.75;;;25.79;23.13
62942;BME280;49042;47.318;19.874;2024-02-21T13:49:49;101010.00;;;23.91;25.20
62942;BME280;49042;47.318;19.874;2024-02-21T13:52:51;101003.53;;;25.07;24.24
62942;BME280;49042;47.318;19.874;2024-02-21T13:55:54;101005.12;;;26.66;22.62
62942;BME280;49042;47.318;19.874;2024-02-21T13:58:57;100997.00;;;28.93;20.54
62942;BME280;49042;47.318;19.874;2024-02-21T14:01:59;100994.72;;;28.58;20.85
62942;BME280;49042;47.318;19.874;2024-02-21T14:05:01;100989.75;;;27.93;21.19
62942;BME280;49042;47.318;19.874;2024-02-21T14:08:06;100990.69;;;24.32;24.99
62942;BME280;49042;47.318;19.874;2024-02-21T14:11:08;100988.69;;;23.91;25.35
62942;BME280;49042;47.318;19.874;2024-02-21T14:14:10;100988.31;;;21.91;27.92
62942;BME280;49042;47.318;19.874;2024-02-21T14:17:12;100978.16;;;21.03;29.70
62942;BME280;49042;47.318;19.874;2024-02-21T14:20:14;100983.41;;;22.45;28.20
62942;BME280;49042;47.318;19.874;2024-02-21T14:23:18;100975.34;;;21.39;29.10
62942;BME280;49042;47.318;19.874;2024-02-21T14:26:20;100972.19;;;20.16;30.15
62942;BME280;49042;47.318;19.874;2024-02-21T14:29:23;100962.44;;;19.82;30.84
62942;BME280;49042;47.318;19.874;2024-02-21T14:32:25;100975.69;;;20.32;29.54
62942;BME280;49042;47.318;19.874;2024-02-21T14:35:27;100972.97;;;19.65;30.19
62942;BME280;49042;47.318;19.874;2024-02-21T14:38:29;100976.91;;;18.52;32.58
62942;BME280;49042;47.318;19.874;2024-02-21T14:41:30;100966.66;;;17.01;34.43
62942;BME280;49042;47.318;19.874;2024-02-21T14:44:32;100974.69;;;17.93;33.93
62942;BME280;49042;47.318;19.874;2024-02-21T14:47:33;100974.00;;;18.18;33.79
62942;BME280;49042;47.318;19.874;2024-02-21T14:50:35;100964.22;;;17.17;35.51
62942;BME280;49042;47.318;19.874;2024-02-21T14:53:37;100968.53;;;17.10;36.02
62942;BME280;49042;47.318;19.874;2024-02-21T14:56:39;100966.28;;;15.63;38.71
62942;BME280;49042;47.318;19.874;2024-02-21T14:59:41;100968.00;;;15.61;40.17
62942;BME280;49042;47.318;19.874;2024-02-21T15:02:43;100974.88;;;15.09;41.94
62942;BME280;49042;47.318;19.874;2024-02-21T15:05:45;100975.78;;;14.71;42.59
62942;BME280;49042;47.318;19.874;2024-02-21T15:08:47;100972.72;;;14.90;42.03
62942;BME280;49042;47.318;19.874;2024-02-21T15:11:50;100971.16;;;14.59;43.33
62942;BME280;49042;47.318;19.874;2024-02-21T15:14:52;100965.91;;;14.59;43.44
62942;BME280;49042;47.318;19.874;2024-02-21T15:17:54;100966.09;;;13.94;45.45
62942;BME280;49042;47.318;19.874;2024-02-21T15:20:55;100973.31;;;13.67;47.72
62942;BME280;49042;47.318;19.874;2024-02-21T15:23:57;100960.72;;;13.55;48.87
62942;BME280;49042;47.318;19.874;2024-02-21T15:27:00;100966.47;;;13.42;51.06
62942;BME280;49042;47.318;19.874;2024-02-21T15:30:02;100964.53;;;13.36;51.51
62942;BME280;49042;47.318;19.874;2024-02-21T15:33:04;100963.19;;;13.18;53.22
62942;BME280;49042;47.318;19.874;2024-02-21T15:36:06;100961.38;;;13.15;55.54
62942;BME280;49042;47.318;19.874;2024-02-21T15:39:08;100953.66;;;12.89;58.10
62942;BME280;49042;47.318;19.874;2024-02-21T15:42:12;100950.78;;;12.52;60.84
62942;BME280;49042;47.318;19.874;2024-02-21T15:45:13;100951.50;;;12.46;64.96
62942;BME280;49042;47.318;19.874;2024-02-21T15:48:15;100944.06;;;12.05;70.68